sensor_id;sensor_type;location;lat;lon;timestamp;P1;durP1;ratioP1;P2;durP2;ratioP2
49824;SDS011;35714;55.708;37.478;2022-10-16T00:00:39;8.45;;;3.05;;
49824;SDS011;35714;55.708;37.478;2022-10-16T00:03:07;5.80;;;2.35;;
49824;SDS011;35714;55.708;37.478;2022-10-16T00:05:38;6.82;;;2.50;;
49824;SDS011;35714;55.708;37.478;2022-10-16T00:08:08;6.10;;;2.72;;
49824;SDS011;35714;55.708;37.478;2022-10-16T00:10:35;6.65;;;2.15;;
49824;SDS011;35714;55.708;37.478;2022-10-16T00:13:02;8.57;;;2.90;;
49824;SDS011;35714;55.708;37.478;2022-10-16T00:15:28;7.13;;;2.70;;
49824;SDS011;35714;55.708;37.478;2022-10-16T00:17:54;8.23;;;2.85;;
49824;SDS011;35714;55.708;37.478;2022-10-16T00:20:19;7.30;;;2.97;;
49824;SDS011;35714;55.708;37.478;2022-10-16T00:23:04;9.73;;;3.08;;
49824;SDS011;35714;55.708;37.478;2022-10-16T00:25:30;8.45;;;3.28;;
49824;SDS011;35714;55.708;37.478;2022-10-16T00:27:58;6.72;;;3.00;;
49824;SDS011;35714;55.708;37.478;2022-10-16T00:30:25;6.53;;;2.50;;
49824;SDS011;35714;55.708;37.478;2022-10-16T00:32:52;6.72;;;2.50;;
49824;SDS011;35714;55.708;37.478;2022-10-16T00:35:18;6.00;;;2.53;;
49824;SDS011;35714;55.708;37.478;2022-10-16T00:37:44;7.88;;;2.85;;
49824;SDS011;35714;55.708;37.478;2022-10-16T00:40:10;6.57;;;2.78;;
49824;SDS011;35714;55.708;37.478;2022-10-16T00:42:36;7.22;;;2.60;;
49824;SDS011;35714;55.708;37.478;2022-10-16T00:45:02;6.68;;;2.30;;
49824;SDS011;35714;55.708;37.478;2022-10-16T00:47:39;7.82;;;2.42;;
49824;SDS011;35714;55.708;37.478;2022-10-16T00:50:22;6.05;;;2.90;;
49824;SDS011;35714;55.708;37.478;2022-10-16T00:52:53;7.55;;;2.45;;
49824;SDS011;35714;55.708;37.478;2022-10-16T00:55:20;7.85;;;2.90;;
49824;SDS011;35714;55.708;37.478;2022-10-16T00:57:46;4.57;;;2.30;;
49824;SDS011;35714;55.708;37.478;2022-10-16T01:00:15;7.00;;;2.83;;
49824;SDS011;35714;55.708;37.478;2022-10-16T01:02:44;6.53;;;2.35;;
49824;SDS011;35714;55.708;37.478;2022-10-16T01:05:09;6.03;;;2.10;;
49824;SDS011;35714;55.708;37.478;2022-10-16T01:10:34;5.40;;;2.58;;
49824;SDS011;35714;55.708;37.478;2022-10-16T01:13:02;7.03;;;2.22;;
49824;SDS011;35714;55.708;37.478;2022-10-16T01:18:44;9.07;;;2.65;;
49824;SDS011;35714;55.708;37.478;2022-10-16T01:31:39;4.97;;;2.22;;
49824;SDS011;35714;55.708;37.478;2022-10-16T01:34:19;7.15;;;2.45;;
49824;SDS011;35714;55.708;37.478;2022-10-16T01:36:51;5.82;;;2.88;;
49824;SDS011;35714;55.708;37.478;2022-10-16T01:39:23;6.10;;;2.35;;
49824;SDS011;35714;55.708;37.478;2022-10-16T01:41:58;6.55;;;2.25;;
49824;SDS011;35714;55.708;37.478;2022-10-16T01:44:33;4.70;;;2.13;;
49824;SDS011;35714;55.708;37.478;2022-10-16T01:47:02;4.82;;;2.42;;
49824;SDS011;35714;55.708;37.478;2022-10-16T01:49:30;9.40;;;2.80;;
49824;SDS011;35714;55.708;37.478;2022-10-16T01:51:59;6.63;;;2.22;;
49824;SDS011;35714;55.708;37.478;2022-10-16T01:54:30;8.07;;;2.95;;
49824;SDS011;35714;55.708;37.478;2022-10-16T01:56:58;5.13;;;2.42;;
49824;SDS011;35714;55.708;37.478;2022-10-16T01:59:26;4.78;;;2.20;;
49824;SDS011;35714;55.708;37.478;2022-10-16T02:01:59;5.03;;;1.95;;
49824;SDS011;35714;55.708;37.478;2022-10-16T02:05:12;5.75;;;2.63;;
49824;SDS011;35714;55.708;37.478;2022-10-16T02:07:18;7.47;;;2.80;;
49824;SDS011;35714;55.708;37.478;2022-10-16T02:09:44;6.18;;;2.42;;
49824;SDS011;35714;55.708;37.478;2022-10-16T02:12:14;5.40;;;2.55;;
49824;SDS011;35714;55.708;37.478;2022-10-16T02:14:44;7.47;;;3.25;;
49824;SDS011;35714;55.708;37.478;2022-10-16T02:17:14;7.88;;;3.10;;
49824;SDS011;35714;55.708;37.478;2022-10-16T02:19:42;6.38;;;2.55;;
49824;SDS011;35714;55.708;37.478;2022-10-16T02:22:14;6.63;;;2.40;;
49824;SDS011;35714;55.708;37.478;2022-10-16T02:25:35;5.43;;;1.92;;
49824;SDS011;35714;55.708;37.478;2022-10-16T02:30:27;6.30;;;2.13;;
49824;SDS011;35714;55.708;37.478;2022-10-16T02:32:58;6.75;;;2.75;;
49824;SDS011;35714;55.708;37.478;2022-10-16T02:35:27;6.18;;;2.47;;
49824;SDS011;35714;55.708;37.478;2022-10-16T02:37:53;8.73;;;3.10;;
49824;SDS011;35714;55.708;37.478;2022-10-16T02:40:20;6.75;;;2.65;;
49824;SDS011;35714;55.708;37.478;2022-10-16T02:42:49;5.47;;;2.15;;
49824;SDS011;35714;55.708;37.478;2022-10-16T02:45:17;7.65;;;2.97;;
49824;SDS011;35714;55.708;37.478;2022-10-16T02:47:43;5.18;;;2.30;;
49824;SDS011;35714;55.708;37.478;2022-10-16T02:50:09;4.75;;;2.40;;
49824;SDS011;35714;55.708;37.478;2022-10-16T02:52:35;6.97;;;2.70;;
49824;SDS011;35714;55.708;37.478;2022-10-16T02:55:00;4.90;;;2.20;;
49824;SDS011;35714;55.708;37.478;2022-10-16T02:57:28;6.72;;;2.78;;
49824;SDS011;35714;55.708;37.478;2022-10-16T02:59:54;8.57;;;3.17;;
49824;SDS011;35714;55.708;37.478;2022-10-16T03:02:20;6.70;;;2.85;;
49824;SDS011;35714;55.708;37.478;2022-10-16T03:04:45;7.43;;;2.50;;
49824;SDS011;35714;55.708;37.478;2022-10-16T03:07:11;6.95;;;2.28;;
49824;SDS011;35714;55.708;37.478;2022-10-16T03:09:37;10.07;;;2.78;;
49824;SDS011;35714;55.708;37.478;2022-10-16T03:12:03;6.68;;;3.05;;
49824;SDS011;35714;55.708;37.478;2022-10-16T03:14:29;6.15;;;1.90;;
49824;SDS011;35714;55.708;37.478;2022-10-16T03:16:54;5.05;;;2.25;;
49824;SDS011;35714;55.708;37.478;2022-10-16T03:19:20;10.77;;;2.50;;
49824;SDS011;35714;55.708;37.478;2022-10-16T03:21:46;5.13;;;2.38;;
49824;SDS011;35714;55.708;37.478;2022-10-16T03:24:11;9.00;;;2.75;;
49824;SDS011;35714;55.708;37.478;2022-10-16T03:26:37;6.10;;;2.20;;
49824;SDS011;35714;55.708;37.478;2022-10-16T03:29:03;6.82;;;2.50;;
49824;SDS011;35714;55.708;37.478;2022-10-16T03:31:29;7.35;;;2.45;;
49824;SDS011;35714;55.708;37.478;2022-10-16T03:33:56;4.63;;;2.25;;
49824;SDS011;35714;55.708;37.478;2022-10-16T03:36:22;7.10;;;2.60;;
49824;SDS011;35714;55.708;37.478;2022-10-16T03:38:47;5.82;;;2.28;;
49824;SDS011;35714;55.708;37.478;2022-10-16T03:41:13;6.90;;;3.25;;
49824;SDS011;35714;55.708;37.478;2022-10-16T03:43:39;8.23;;;3.00;;
49824;SDS011;35714;55.708;37.478;2022-10-16T03:46:04;6.00;;;2.25;;
49824;SDS011;35714;55.708;37.478;2022-10-16T03:48:30;10.32;;;3.47;;
49824;SDS011;35714;55.708;37.478;2022-10-16T03:50:57;8.00;;;2.83;;
49824;SDS011;35714;55.708;37.478;2022-10-16T03:53:23;7.22;;;2.97;;
49824;SDS011;35714;55.708;37.478;2022-10-16T03:55:49;6.07;;;2.10;;
49824;SDS011;35714;55.708;37.478;2022-10-16T03:58:15;10.13;;;2.97;;
49824;SDS011;35714;55.708;37.478;2022-10-16T04:00:41;8.20;;;2.47;;
49824;SDS011;35714;55.708;37.478;2022-10-16T04:03:08;6.25;;;2.25;;
49824;SDS011;35714;55.708;37.478;2022-10-16T04:05:34;8.57;;;2.25;;
49824;SDS011;35714;55.708;37.478;2022-10-16T04:07:59;5.95;;;2.47;;
49824;SDS011;35714;55.708;37.478;2022-10-16T04:10:25;10.80;;;2.78;;
49824;SDS011;35714;55.708;37.478;2022-10-16T04:12:51;7.07;;;2.40;;
49824;SDS011;35714;55.708;37.478;2022-10-16T04:15:16;9.73;;;3.17;;
49824;SDS011;35714;55.708;37.478;2022-10-16T04:17:42;6.07;;;2.65;;
49824;SDS011;35714;55.708;37.478;2022-10-16T04:20:08;5.18;;;2.33;;
49824;SDS011;35714;55.708;37.478;2022-10-16T04:22:34;9.25;;;2.70;;
49824;SDS011;35714;55.708;37.478;2022-10-16T04:25:00;7.40;;;2.80;;
49824;SDS011;35714;55.708;37.478;2022-10-16T04:27:25;7.18;;;2.97;;
49824;SDS011;35714;55.708;37.478;2022-10-16T04:29:51;24.23;;;2.47;;
49824;SDS011;35714;55.708;37.478;2022-10-16T04:32:16;5.28;;;2.50;;
49824;SDS011;35714;55.708;37.478;2022-10-16T04:34:42;6.57;;;2.63;;
49824;SDS011;35714;55.708;37.478;2022-10-16T04:37:08;6.95;;;2.83;;
49824;SDS011;35714;55.708;37.478;2022-10-16T04:39:34;6.90;;;2.45;;
49824;SDS011;35714;55.708;37.478;2022-10-16T04:41:59;6.43;;;2.72;;
49824;SDS011;35714;55.708;37.478;2022-10-16T04:44:25;9.77;;;2.30;;
49824;SDS011;35714;55.708;37.478;2022-10-16T04:46:51;6.82;;;1.98;;
49824;SDS011;35714;55.708;37.478;2022-10-16T04:49:17;6.53;;;2.83;;
49824;SDS011;35714;55.708;37.478;2022-10-16T04:51:42;6.60;;;2.33;;
49824;SDS011;35714;55.708;37.478;2022-10-16T04:54:08;8.57;;;3.20;;
49824;SDS011;35714;55.708;37.478;2022-10-16T04:56:34;8.13;;;2.40;;
49824;SDS011;35714;55.708;37.478;2022-10-16T04:59:08;7.57;;;2.85;;
49824;SDS011;35714;55.708;37.478;2022-10-16T05:01:34;6.07;;;2.50;;
49824;SDS011;35714;55.708;37.478;2022-10-16T05:04:00;4.68;;;2.13;;
49824;SDS011;35714;55.708;37.478;2022-10-16T05:06:26;6.70;;;2.20;;
49824;SDS011;35714;55.708;37.478;2022-10-16T05:08:51;7.65;;;2.65;;
49824;SDS011;35714;55.708;37.478;2022-10-16T05:11:17;10.23;;;2.90;;
49824;SDS011;35714;55.708;37.478;2022-10-16T05:13:42;9.30;;;3.00;;
49824;SDS011;35714;55.708;37.478;2022-10-16T05:16:09;6.90;;;2.72;;
49824;SDS011;35714;55.708;37.478;2022-10-16T05:18:35;7.07;;;2.50;;
49824;SDS011;35714;55.708;37.478;2022-10-16T05:21:01;6.95;;;2.47;;
49824;SDS011;35714;55.708;37.478;2022-10-16T05:23:26;7.80;;;2.97;;
49824;SDS011;35714;55.708;37.478;2022-10-16T05:25:55;5.07;;;2.53;;
49824;SDS011;35714;55.708;37.478;2022-10-16T05:28:26;5.53;;;2.50;;
49824;SDS011;35714;55.708;37.478;2022-10-16T05:30:53;7.75;;;2.92;;
49824;SDS011;35714;55.708;37.478;2022-10-16T05:33:20;8.50;;;2.60;;
49824;SDS011;35714;55.708;37.478;2022-10-16T05:35:46;8.32;;;3.13;;
49824;SDS011;35714;55.708;37.478;2022-10-16T05:38:12;9.30;;;2.60;;
49824;SDS011;35714;55.708;37.478;2022-10-16T05:40:38;10.27;;;2.90;;
49824;SDS011;35714;55.708;37.478;2022-10-16T05:43:04;6.82;;;2.70;;
49824;SDS011;35714;55.708;37.478;2022-10-16T05:45:30;8.75;;;3.13;;
49824;SDS011;35714;55.708;37.478;2022-10-16T05:47:56;8.40;;;2.88;;
49824;SDS011;35714;55.708;37.478;2022-10-16T05:50:21;9.38;;;4.07;;
49824;SDS011;35714;55.708;37.478;2022-10-16T05:52:47;11.43;;;2.63;;
49824;SDS011;35714;55.708;37.478;2022-10-16T05:55:13;6.22;;;3.00;;
49824;SDS011;35714;55.708;37.478;2022-10-16T05:57:38;7.93;;;2.67;;
49824;SDS011;35714;55.708;37.478;2022-10-16T06:00:05;8.05;;;2.60;;
49824;SDS011;35714;55.708;37.478;2022-10-16T06:02:38;7.15;;;2.95;;
49824;SDS011;35714;55.708;37.478;2022-10-16T06:05:04;11.70;;;3.33;;
49824;SDS011;35714;55.708;37.478;2022-10-16T06:07:33;8.63;;;2.95;;
49824;SDS011;35714;55.708;37.478;2022-10-16T06:10:01;12.90;;;3.03;;
49824;SDS011;35714;55.708;37.478;2022-10-16T06:12:28;9.27;;;3.42;;
49824;SDS011;35714;55.708;37.478;2022-10-16T06:14:55;6.93;;;3.03;;
49824;SDS011;35714;55.708;37.478;2022-10-16T06:17:20;7.40;;;3.22;;
49824;SDS011;35714;55.708;37.478;2022-10-16T06:19:46;7.63;;;3.28;;
49824;SDS011;35714;55.708;37.478;2022-10-16T06:22:12;7.25;;;3.50;;
49824;SDS011;35714;55.708;37.478;2022-10-16T06:24:38;9.10;;;2.72;;
49824;SDS011;35714;55.708;37.478;2022-10-16T06:27:04;13.18;;;3.30;;
49824;SDS011;35714;55.708;37.478;2022-10-16T06:29:30;6.70;;;3.00;;
49824;SDS011;35714;55.708;37.478;2022-10-16T06:31:55;9.43;;;2.85;;
49824;SDS011;35714;55.708;37.478;2022-10-16T06:34:21;9.07;;;3.25;;
49824;SDS011;35714;55.708;37.478;2022-10-16T06:36:47;12.50;;;2.60;;
49824;SDS011;35714;55.708;37.478;2022-10-16T06:39:13;6.65;;;2.92;;
49824;SDS011;35714;55.708;37.478;2022-10-16T06:41:38;7.63;;;3.13;;
49824;SDS011;35714;55.708;37.478;2022-10-16T06:51:31;7.40;;;3.22;;
49824;SDS011;35714;55.708;37.478;2022-10-16T06:53:59;9.75;;;2.90;;
49824;SDS011;35714;55.708;37.478;2022-10-16T06:56:26;9.65;;;3.22;;
49824;SDS011;35714;55.708;37.478;2022-10-16T06:58:53;9.25;;;3.55;;
49824;SDS011;35714;55.708;37.478;2022-10-16T07:01:20;8.07;;;3.28;;
49824;SDS011;35714;55.708;37.478;2022-10-16T07:03:47;8.05;;;3.13;;
49824;SDS011;35714;55.708;37.478;2022-10-16T07:06:15;9.05;;;3.63;;
49824;SDS011;35714;55.708;37.478;2022-10-16T07:08:43;16.38;;;3.83;;
49824;SDS011;35714;55.708;37.478;2022-10-16T07:11:11;9.02;;;3.35;;
49824;SDS011;35714;55.708;37.478;2022-10-16T07:13:41;9.55;;;3.05;;
49824;SDS011;35714;55.708;37.478;2022-10-16T07:16:10;16.52;;;4.53;;
49824;SDS011;35714;55.708;37.478;2022-10-16T07:18:37;12.00;;;4.40;;
49824;SDS011;35714;55.708;37.478;2022-10-16T07:21:08;15.00;;;5.65;;
49824;SDS011;35714;55.708;37.478;2022-10-16T07:23:37;14.00;;;5.85;;
49824;SDS011;35714;55.708;37.478;2022-10-16T07:26:04;14.75;;;5.25;;
49824;SDS011;35714;55.708;37.478;2022-10-16T07:28:37;8.90;;;4.90;;
49824;SDS011;35714;55.708;37.478;2022-10-16T07:31:06;13.05;;;4.05;;
49824;SDS011;35714;55.708;37.478;2022-10-16T07:33:34;9.68;;;4.03;;
49824;SDS011;35714;55.708;37.478;2022-10-16T07:36:03;6.40;;;3.40;;
49824;SDS011;35714;55.708;37.478;2022-10-16T07:38:29;7.18;;;3.78;;
49824;SDS011;35714;55.708;37.478;2022-10-16T07:40:57;8.57;;;4.28;;
49824;SDS011;35714;55.708;37.478;2022-10-16T07:43:27;14.75;;;4.20;;
49824;SDS011;35714;55.708;37.478;2022-10-16T07:45:56;7.53;;;3.50;;
49824;SDS011;35714;55.708;37.478;2022-10-16T07:48:22;9.63;;;4.10;;
49824;SDS011;35714;55.708;37.478;2022-10-16T07:50:51;8.77;;;3.30;;
49824;SDS011;35714;55.708;37.478;2022-10-16T07:53:20;7.57;;;2.95;;
49824;SDS011;35714;55.708;37.478;2022-10-16T07:55:46;17.73;;;4.40;;
49824;SDS011;35714;55.708;37.478;2022-10-16T07:58:13;9.60;;;2.80;;
49824;SDS011;35714;55.708;37.478;2022-10-16T08:00:44;9.02;;;3.17;;
49824;SDS011;35714;55.708;37.478;2022-10-16T08:03:10;10.30;;;3.15;;
49824;SDS011;35714;55.708;37.478;2022-10-16T08:05:36;12.35;;;3.30;;
49824;SDS011;35714;55.708;37.478;2022-10-16T08:08:02;14.63;;;3.40;;
49824;SDS011;35714;55.708;37.478;2022-10-16T08:10:28;6.18;;;2.78;;
49824;SDS011;35714;55.708;37.478;2022-10-16T08:12:54;7.60;;;3.03;;
49824;SDS011;35714;55.708;37.478;2022-10-16T08:15:20;9.27;;;3.78;;
49824;SDS011;35714;55.708;37.478;2022-10-16T08:17:54;7.85;;;3.38;;
49824;SDS011;35714;55.708;37.478;2022-10-16T08:20:28;9.13;;;3.70;;
49824;SDS011;35714;55.708;37.478;2022-10-16T08:22:55;7.53;;;3.45;;
49824;SDS011;35714;55.708;37.478;2022-10-16T08:25:22;7.68;;;3.28;;
49824;SDS011;35714;55.708;37.478;2022-10-16T08:27:48;11.70;;;3.88;;
49824;SDS011;35714;55.708;37.478;2022-10-16T08:30:15;7.57;;;2.83;;
49824;SDS011;35714;55.708;37.478;2022-10-16T08:32:42;12.77;;;3.22;;
49824;SDS011;35714;55.708;37.478;2022-10-16T08:35:09;8.98;;;3.08;;
49824;SDS011;35714;55.708;37.478;2022-10-16T08:37:35;11.13;;;3.97;;
49824;SDS011;35714;55.708;37.478;2022-10-16T08:40:03;15.35;;;5.70;;
49824;SDS011;35714;55.708;37.478;2022-10-16T08:47:42;9.75;;;4.30;;
49824;SDS011;35714;55.708;37.478;2022-10-16T08:50:26;12.07;;;3.72;;
49824;SDS011;35714;55.708;37.478;2022-10-16T08:52:54;8.73;;;3.60;;
49824;SDS011;35714;55.708;37.478;2022-10-16T08:58:41;8.27;;;2.40;;
49824;SDS011;35714;55.708;37.478;2022-10-16T09:01:03;5.60;;;2.13;;
49824;SDS011;35714;55.708;37.478;2022-10-16T09:14:47;7.47;;;2.15;;
49824;SDS011;35714;55.708;37.478;2022-10-16T09:17:49;5.95;;;2.33;;
49824;SDS011;35714;55.708;37.478;2022-10-16T09:26:05;4.50;;;2.00;;
49824;SDS011;35714;55.708;37.478;2022-10-16T09:28:36;5.40;;;2.00;;
49824;SDS011;35714;55.708;37.478;2022-10-16T09:31:02;6.32;;;2.13;;
49824;SDS011;35714;55.708;37.478;2022-10-16T09:33:29;5.82;;;2.28;;
49824;SDS011;35714;55.708;37.478;2022-10-16T09:36:00;4.45;;;1.75;;
49824;SDS011;35714;55.708;37.478;2022-10-16T09:38:29;5.57;;;1.98;;
49824;SDS011;35714;55.708;37.478;2022-10-16T09:40:57;10.20;;;2.45;;
49824;SDS011;35714;55.708;37.478;2022-10-16T09:43:31;7.32;;;2.17;;
49824;SDS011;35714;55.708;37.478;2022-10-16T09:46:07;5.68;;;1.88;;
49824;SDS011;35714;55.708;37.478;2022-10-16T09:48:47;6.05;;;1.88;;
49824;SDS011;35714;55.708;37.478;2022-10-16T09:56:31;6.10;;;2.15;;
49824;SDS011;35714;55.708;37.478;2022-10-16T09:58:59;7.88;;;2.35;;
49824;SDS011;35714;55.708;37.478;2022-10-16T10:01:29;4.72;;;1.80;;
49824;SDS011;35714;55.708;37.478;2022-10-16T10:04:05;5.78;;;1.95;;
49824;SDS011;35714;55.708;37.478;2022-10-16T10:06:33;8.90;;;2.22;;
49824;SDS011;35714;55.708;37.478;2022-10-16T10:09:04;6.70;;;2.10;;
49824;SDS011;35714;55.708;37.478;2022-10-16T10:11:52;6.55;;;2.28;;
49824;SDS011;35714;55.708;37.478;2022-10-16T10:19:42;6.50;;;2.03;;
49824;SDS011;35714;55.708;37.478;2022-10-16T10:22:18;5.85;;;2.08;;
49824;SDS011;35714;55.708;37.478;2022-10-16T10:27:53;7.15;;;2.30;;
49824;SDS011;35714;55.708;37.478;2022-10-16T10:30:24;6.10;;;1.90;;
49824;SDS011;35714;55.708;37.478;2022-10-16T10:38:57;4.90;;;1.58;;
49824;SDS011;35714;55.708;37.478;2022-10-16T10:44:19;7.28;;;1.85;;
49824;SDS011;35714;55.708;37.478;2022-10-16T11:00:57;5.57;;;2.17;;
49824;SDS011;35714;55.708;37.478;2022-10-16T11:08:52;10.05;;;2.58;;
49824;SDS011;35714;55.708;37.478;2022-10-16T11:11:42;3.92;;;1.80;;
49824;SDS011;35714;55.708;37.478;2022-10-16T11:14:11;5.28;;;2.00;;
49824;SDS011;35714;55.708;37.478;2022-10-16T11:16:51;5.32;;;2.53;;
49824;SDS011;35714;55.708;37.478;2022-10-16T11:25:20;6.65;;;2.00;;
49824;SDS011;35714;55.708;37.478;2022-10-16T11:27:50;5.93;;;1.92;;
49824;SDS011;35714;55.708;37.478;2022-10-16T11:30:23;7.30;;;2.45;;
49824;SDS011;35714;55.708;37.478;2022-10-16T11:32:53;7.13;;;2.30;;
49824;SDS011;35714;55.708;37.478;2022-10-16T11:35:28;4.05;;;2.00;;
49824;SDS011;35714;55.708;37.478;2022-10-16T11:38:02;7.88;;;2.13;;
49824;SDS011;35714;55.708;37.478;2022-10-16T11:40:37;7.18;;;2.55;;
49824;SDS011;35714;55.708;37.478;2022-10-16T11:43:15;5.07;;;2.53;;
49824;SDS011;35714;55.708;37.478;2022-10-16T11:45:49;4.40;;;1.75;;
49824;SDS011;35714;55.708;37.478;2022-10-16T11:51:36;6.68;;;1.60;;
49824;SDS011;35714;55.708;37.478;2022-10-16T11:54:14;8.55;;;2.58;;
49824;SDS011;35714;55.708;37.478;2022-10-16T11:56:46;4.25;;;1.83;;
49824;SDS011;35714;55.708;37.478;2022-10-16T11:59:20;7.28;;;2.50;;
49824;SDS011;35714;55.708;37.478;2022-10-16T12:07:35;6.00;;;2.38;;
49824;SDS011;35714;55.708;37.478;2022-10-16T12:13:05;6.90;;;2.03;;
49824;SDS011;35714;55.708;37.478;2022-10-16T12:15:50;5.97;;;2.08;;
49824;SDS011;35714;55.708;37.478;2022-10-16T12:18:22;5.95;;;1.80;;
49824;SDS011;35714;55.708;37.478;2022-10-16T12:20:56;8.18;;;2.42;;
49824;SDS011;35714;55.708;37.478;2022-10-16T12:23:30;7.45;;;2.13;;
49824;SDS011;35714;55.708;37.478;2022-10-16T12:25:58;7.70;;;2.00;;
49824;SDS011;35714;55.708;37.478;2022-10-16T12:28:26;10.32;;;2.72;;
49824;SDS011;35714;55.708;37.478;2022-10-16T12:31:01;5.97;;;2.10;;
49824;SDS011;35714;55.708;37.478;2022-10-16T12:33:31;16.65;;;2.83;;
49824;SDS011;35714;55.708;37.478;2022-10-16T12:36:04;4.70;;;2.15;;
49824;SDS011;35714;55.708;37.478;2022-10-16T12:41:23;7.13;;;2.13;;
49824;SDS011;35714;55.708;37.478;2022-10-16T12:43:53;4.47;;;2.25;;
49824;SDS011;35714;55.708;37.478;2022-10-16T12:48:51;6.95;;;1.90;;
49824;SDS011;35714;55.708;37.478;2022-10-16T12:54:03;7.47;;;2.40;;
49824;SDS011;35714;55.708;37.478;2022-10-16T13:13:34;5.88;;;2.13;;
49824;SDS011;35714;55.708;37.478;2022-10-16T13:21:30;5.97;;;2.28;;
49824;SDS011;35714;55.708;37.478;2022-10-16T13:29:08;7.47;;;2.35;;
49824;SDS011;35714;55.708;37.478;2022-10-16T13:31:36;13.85;;;2.97;;
49824;SDS011;35714;55.708;37.478;2022-10-16T13:34:04;6.97;;;2.85;;
49824;SDS011;35714;55.708;37.478;2022-10-16T13:36:44;8.25;;;2.90;;
49824;SDS011;35714;55.708;37.478;2022-10-16T13:39:12;10.93;;;2.80;;
49824;SDS011;35714;55.708;37.478;2022-10-16T13:41:42;7.88;;;2.95;;
49824;SDS011;35714;55.708;37.478;2022-10-16T13:44:13;8.32;;;2.80;;
49824;SDS011;35714;55.708;37.478;2022-10-16T13:46:43;7.95;;;2.63;;
49824;SDS011;35714;55.708;37.478;2022-10-16T13:49:16;7.25;;;2.92;;
49824;SDS011;35714;55.708;37.478;2022-10-16T13:52:04;11.85;;;3.03;;
49824;SDS011;35714;55.708;37.478;2022-10-16T13:54:28;8.82;;;2.70;;
49824;SDS011;35714;55.708;37.478;2022-10-16T13:56:54;7.88;;;2.38;;
49824;SDS011;35714;55.708;37.478;2022-10-16T13:59:32;9.88;;;2.83;;
49824;SDS011;35714;55.708;37.478;2022-10-16T14:02:05;9.82;;;2.35;;
49824;SDS011;35714;55.708;37.478;2022-10-16T14:04:43;7.30;;;2.83;;
49824;SDS011;35714;55.708;37.478;2022-10-16T14:07:18;8.32;;;2.35;;
49824;SDS011;35714;55.708;37.478;2022-10-16T14:09:50;7.85;;;2.40;;
49824;SDS011;35714;55.708;37.478;2022-10-16T14:12:18;7.07;;;2.67;;
49824;SDS011;35714;55.708;37.478;2022-10-16T14:14:54;5.80;;;2.15;;
49824;SDS011;35714;55.708;37.478;2022-10-16T14:17:29;10.82;;;3.03;;
49824;SDS011;35714;55.708;37.478;2022-10-16T14:19:58;6.68;;;2.88;;
49824;SDS011;35714;55.708;37.478;2022-10-16T14:22:36;8.27;;;3.03;;
49824;SDS011;35714;55.708;37.478;2022-10-16T14:27:44;10.18;;;2.80;;
49824;SDS011;35714;55.708;37.478;2022-10-16T14:30:18;6.72;;;2.55;;
49824;SDS011;35714;55.708;37.478;2022-10-16T14:32:56;7.40;;;2.30;;
49824;SDS011;35714;55.708;37.478;2022-10-16T14:38:03;5.68;;;2.45;;
49824;SDS011;35714;55.708;37.478;2022-10-16T14:40:35;9.27;;;3.33;;
49824;SDS011;35714;55.708;37.478;2022-10-16T14:43:03;7.07;;;2.88;;
49824;SDS011;35714;55.708;37.478;2022-10-16T14:45:31;6.78;;;2.88;;
49824;SDS011;35714;55.708;37.478;2022-10-16T14:48:01;8.35;;;2.47;;
49824;SDS011;35714;55.708;37.478;2022-10-16T14:50:32;18.10;;;2.72;;
49824;SDS011;35714;55.708;37.478;2022-10-16T14:52:58;9.45;;;3.38;;
49824;SDS011;35714;55.708;37.478;2022-10-16T14:55:25;13.93;;;2.85;;
49824;SDS011;35714;55.708;37.478;2022-10-16T14:57:51;8.50;;;2.72;;
49824;SDS011;35714;55.708;37.478;2022-10-16T15:00:18;11.68;;;3.10;;
49824;SDS011;35714;55.708;37.478;2022-10-16T15:02:46;12.70;;;3.40;;
49824;SDS011;35714;55.708;37.478;2022-10-16T15:07:44;16.92;;;3.35;;
49824;SDS011;35714;55.708;37.478;2022-10-16T15:10:11;11.27;;;3.42;;
49824;SDS011;35714;55.708;37.478;2022-10-16T15:12:38;10.63;;;3.28;;
49824;SDS011;35714;55.708;37.478;2022-10-16T15:17:51;9.48;;;3.03;;
49824;SDS011;35714;55.708;37.478;2022-10-16T15:20:20;11.63;;;3.00;;
49824;SDS011;35714;55.708;37.478;2022-10-16T15:22:46;11.65;;;3.17;;
49824;SDS011;35714;55.708;37.478;2022-10-16T15:28:03;10.95;;;2.95;;
49824;SDS011;35714;55.708;37.478;2022-10-16T15:30:29;7.43;;;3.15;;
49824;SDS011;35714;55.708;37.478;2022-10-16T15:32:55;7.78;;;3.72;;
49824;SDS011;35714;55.708;37.478;2022-10-16T15:35:21;10.48;;;3.70;;
49824;SDS011;35714;55.708;37.478;2022-10-16T15:37:47;8.15;;;3.80;;
49824;SDS011;35714;55.708;37.478;2022-10-16T15:40:14;7.57;;;3.25;;
49824;SDS011;35714;55.708;37.478;2022-10-16T15:42:40;11.85;;;3.78;;
49824;SDS011;35714;55.708;37.478;2022-10-16T15:45:21;13.45;;;3.50;;
49824;SDS011;35714;55.708;37.478;2022-10-16T15:47:48;14.55;;;3.78;;
49824;SDS011;35714;55.708;37.478;2022-10-16T15:50:14;8.35;;;3.50;;
49824;SDS011;35714;55.708;37.478;2022-10-16T15:52:41;8.18;;;3.35;;
49824;SDS011;35714;55.708;37.478;2022-10-16T15:55:08;8.80;;;2.95;;
49824;SDS011;35714;55.708;37.478;2022-10-16T15:57:35;11.80;;;3.10;;
49824;SDS011;35714;55.708;37.478;2022-10-16T16:00:07;6.70;;;2.88;;
49824;SDS011;35714;55.708;37.478;2022-10-16T16:02:37;8.60;;;3.17;;
49824;SDS011;35714;55.708;37.478;2022-10-16T16:05:04;11.25;;;3.15;;
49824;SDS011;35714;55.708;37.478;2022-10-16T16:07:35;8.25;;;2.88;;
49824;SDS011;35714;55.708;37.478;2022-10-16T16:10:01;9.00;;;2.85;;
49824;SDS011;35714;55.708;37.478;2022-10-16T16:12:28;8.32;;;2.25;;
49824;SDS011;35714;55.708;37.478;2022-10-16T16:14:54;14.23;;;3.28;;
49824;SDS011;35714;55.708;37.478;2022-10-16T16:17:20;9.32;;;2.58;;
49824;SDS011;35714;55.708;37.478;2022-10-16T16:19:45;7.85;;;2.88;;
49824;SDS011;35714;55.708;37.478;2022-10-16T16:22:12;9.18;;;2.60;;
49824;SDS011;35714;55.708;37.478;2022-10-16T16:24:38;7.18;;;2.58;;
49824;SDS011;35714;55.708;37.478;2022-10-16T16:27:03;6.45;;;2.58;;
49824;SDS011;35714;55.708;37.478;2022-10-16T16:29:29;8.02;;;2.75;;
49824;SDS011;35714;55.708;37.478;2022-10-16T16:31:55;6.97;;;2.85;;
49824;SDS011;35714;55.708;37.478;2022-10-16T16:34:28;7.88;;;2.78;;
49824;SDS011;35714;55.708;37.478;2022-10-16T16:36:54;9.00;;;2.92;;
49824;SDS011;35714;55.708;37.478;2022-10-16T16:39:21;7.35;;;2.85;;
49824;SDS011;35714;55.708;37.478;2022-10-16T16:41:48;6.55;;;2.10;;
49824;SDS011;35714;55.708;37.478;2022-10-16T16:44:14;13.27;;;2.95;;
49824;SDS011;35714;55.708;37.478;2022-10-16T16:46:41;8.23;;;2.25;;
49824;SDS011;35714;55.708;37.478;2022-10-16T16:49:09;5.28;;;2.30;;
49824;SDS011;35714;55.708;37.478;2022-10-16T16:51:36;7.13;;;2.47;;
49824;SDS011;35714;55.708;37.478;2022-10-16T16:54:03;8.93;;;2.60;;
49824;SDS011;35714;55.708;37.478;2022-10-16T16:56:30;5.25;;;2.35;;
49824;SDS011;35714;55.708;37.478;2022-10-16T16:58:56;8.48;;;3.10;;
49824;SDS011;35714;55.708;37.478;2022-10-16T17:01:22;6.40;;;2.47;;
49824;SDS011;35714;55.708;37.478;2022-10-16T17:03:52;5.43;;;2.15;;
49824;SDS011;35714;55.708;37.478;2022-10-16T17:06:23;6.85;;;1.95;;
49824;SDS011;35714;55.708;37.478;2022-10-16T17:08:50;7.38;;;2.50;;
49824;SDS011;35714;55.708;37.478;2022-10-16T17:11:17;6.25;;;2.63;;
49824;SDS011;35714;55.708;37.478;2022-10-16T17:13:47;7.55;;;2.83;;
49824;SDS011;35714;55.708;37.478;2022-10-16T17:16:13;5.30;;;2.42;;
49824;SDS011;35714;55.708;37.478;2022-10-16T17:18:39;8.57;;;2.97;;
49824;SDS011;35714;55.708;37.478;2022-10-16T17:21:08;5.80;;;2.92;;
49824;SDS011;35714;55.708;37.478;2022-10-16T17:23:34;8.95;;;3.17;;